createdAt,value
2023-07-10T00:01:47.549Z,59.59
2023-07-10T00:04:17.267Z,59.67
2023-07-10T00:06:44.799Z,59.17
2023-07-10T00:09:12.331Z,59.77
2023-07-10T00:11:42.979Z,59.25
2023-07-10T00:14:19.034Z,59.76
2023-07-10T00:16:46.549Z,59.85
2023-07-10T00:19:14.552Z,60.43
2023-07-10T00:21:42.515Z,60.20
2023-07-10T00:24:10.072Z,59.46
2023-07-10T00:26:38.746Z,59.53
2023-07-10T00:29:17.675Z,59.04
2023-07-10T00:31:45.171Z,59.08
2023-07-10T00:34:15.915Z,58.92
2023-07-10T00:36:43.772Z,59.39
2023-07-10T00:39:22.521Z,59.65
2023-07-10T00:41:54.694Z,60.11
2023-07-10T00:44:28.975Z,60.57
2023-07-10T00:46:59.882Z,61.15
2023-07-10T00:49:33.420Z,61.17
2023-07-10T00:52:07.474Z,61.26
2023-07-10T00:54:37.352Z,61.96
2023-07-10T00:57:11.686Z,61.94
2023-07-10T00:59:41.781Z,60.86
2023-07-10T01:02:23.394Z,62.05
2023-07-10T01:04:56.004Z,62.31
2023-07-10T01:07:26.264Z,62.38
2023-07-10T01:09:58.055Z,62.65
2023-07-10T01:12:26.082Z,62.52
2023-07-10T01:14:54.915Z,62.76
2023-07-10T01:17:22.551Z,62.47
2023-07-10T01:19:51.740Z,63.02
2023-07-10T01:22:20.782Z,63.62
2023-07-10T01:24:53.924Z,63.19
2023-07-10T01:27:23.234Z,62.36
2023-07-10T01:29:58.187Z,62.17
2023-07-10T01:32:28.976Z,61.95
2023-07-10T01:35:00.711Z,62.24
2023-07-10T01:37:29.594Z,62.03
2023-07-10T01:39:57.118Z,62.26
2023-07-10T01:42:25.265Z,61.83
2023-07-10T01:44:54.052Z,62.45
2023-07-10T01:47:22.465Z,62.96
2023-07-10T01:49:54.015Z,63.30
2023-07-10T01:52:24.054Z,63.26
2023-07-10T01:54:56.580Z,62.71
2023-07-10T01:57:25.351Z,64.44
2023-07-10T01:59:53.071Z,64.39
2023-07-10T02:02:21.123Z,63.94
2023-07-10T02:04:48.796Z,65.18
2023-07-10T02:07:16.295Z,64.57
2023-07-10T02:09:43.890Z,64.79
2023-07-10T02:12:12.942Z,64.42
2023-07-10T02:14:41.440Z,64.39
2023-07-10T02:17:08.998Z,64.97
2023-07-10T02:19:36.507Z,65.20
2023-07-10T02:22:04.162Z,65.28
2023-07-10T02:24:31.661Z,64.67
2023-07-10T02:26:59.516Z,65.10
2023-07-10T02:29:28.336Z,64.81
2023-07-10T02:31:55.895Z,65.45
2023-07-10T02:34:23.494Z,68.30
2023-07-10T02:36:50.982Z,68.01
2023-07-10T02:39:18.505Z,67.69
2023-07-10T02:41:45.986Z,67.09
2023-07-10T02:44:13.493Z,66.89
2023-07-10T02:46:42.347Z,66.72
2023-07-10T02:49:09.885Z,65.84
2023-07-10T02:51:37.432Z,65.52
2023-07-10T02:54:11.216Z,65.71
2023-07-10T02:56:38.771Z,66.45
2023-07-10T02:59:06.618Z,67.42
2023-07-10T03:01:34.430Z,67.08
2023-07-10T03:04:03.383Z,69.07
2023-07-10T03:06:30.863Z,67.81
2023-07-10T03:08:59.601Z,68.65
2023-07-10T03:11:27.201Z,67.75
2023-07-10T03:13:54.916Z,67.72
2023-07-10T03:16:22.534Z,68.24
2023-07-10T03:18:50.112Z,69.04
2023-07-10T03:21:18.975Z,67.87
2023-07-10T03:23:49.126Z,67.15
2023-07-10T03:26:16.631Z,67.16
2023-07-10T03:28:44.284Z,67.32
2023-07-10T03:31:12.313Z,67.87
2023-07-10T03:33:39.850Z,68.42
2023-07-10T03:36:09.561Z,68.94
2023-07-10T03:38:38.679Z,69.18
2023-07-10T03:41:06.354Z,68.95
2023-07-10T03:43:33.895Z,69.06
2023-07-10T03:46:01.636Z,69.22
2023-07-10T03:48:29.540Z,68.55
2023-07-10T03:50:57.030Z,68.79
2023-07-10T03:53:24.620Z,69.52
2023-07-10T03:55:55.156Z,71.86
2023-07-10T03:58:25.626Z,73.57
2023-07-10T04:00:53.729Z,71.88
2023-07-10T04:03:24.644Z,72.12
2023-07-10T04:05:53.893Z,72.31
2023-07-10T04:08:22.433Z,71.04
2023-07-10T04:10:51.053Z,71.14
2023-07-10T04:13:20.533Z,71.15
2023-07-10T04:16:00.232Z,73.89
2023-07-10T04:18:29.590Z,73.69
2023-07-10T04:20:58.027Z,73.64
2023-07-10T04:23:25.788Z,73.08
2023-07-10T04:25:53.825Z,73.66
2023-07-10T04:28:22.711Z,75.12
2023-07-10T04:30:50.778Z,73.89
2023-07-10T04:33:18.748Z,74.56
2023-07-10T04:35:53.774Z,75.21
2023-07-10T04:38:21.317Z,76.17
2023-07-10T04:40:56.878Z,77.61
2023-07-10T04:43:26.680Z,76.64
2023-07-10T04:45:55.203Z,76.39
2023-07-10T04:48:23.076Z,77.04
2023-07-10T04:50:52.842Z,77.90
2023-07-10T04:53:21.733Z,78.63
2023-07-10T04:55:50.470Z,77.73
2023-07-10T04:58:18.214Z,77.48
2023-07-10T05:00:53.381Z,76.78
2023-07-10T05:03:20.991Z,75.24
2023-07-10T05:05:53.310Z,75.59
2023-07-10T05:08:22.755Z,75.67
2023-07-10T05:10:51.404Z,76.04
2023-07-10T05:13:19.847Z,76.15
2023-07-10T05:15:49.525Z,76.37
2023-07-10T05:18:17.681Z,76.77
2023-07-10T05:20:48.249Z,76.77
2023-07-10T05:23:16.547Z,76.27
2023-07-10T05:25:55.949Z,75.92
2023-07-10T05:28:23.651Z,76.00
2023-07-10T05:30:52.776Z,75.61
2023-07-10T05:33:20.691Z,75.99
2023-07-10T05:35:53.195Z,74.81
2023-07-10T05:38:22.134Z,74.86
2023-07-10T05:40:49.678Z,74.86
2023-07-10T05:43:17.675Z,75.22
2023-07-10T05:45:45.283Z,74.95
2023-07-10T05:48:15.757Z,74.52
2023-07-10T05:50:47.911Z,73.53
2023-07-10T05:53:15.609Z,73.39
2023-07-10T05:55:45.991Z,73.17
2023-07-10T05:58:13.684Z,73.09
2023-07-10T06:00:42.263Z,72.89
2023-07-10T06:03:30.047Z,72.61
2023-07-10T06:05:59.747Z,72.82
2023-07-10T06:08:28.770Z,72.75
2023-07-10T06:10:56.366Z,72.12
2023-07-10T06:13:24.007Z,71.52
2023-07-10T06:15:53.789Z,70.88
2023-07-10T06:18:23.742Z,70.88
2023-07-10T06:20:53.170Z,70.83
2023-07-10T06:23:20.998Z,70.78
2023-07-10T06:25:48.553Z,69.59
2023-07-10T06:28:16.886Z,68.35
2023-07-10T06:30:48.302Z,67.06
2023-07-10T06:33:18.835Z,66.49
2023-07-10T06:35:47.682Z,65.59
2023-07-10T06:38:15.191Z,65.64
2023-07-10T06:40:42.854Z,65.08
2023-07-10T06:43:10.754Z,65.05
2023-07-10T06:45:38.305Z,65.09
2023-07-10T06:48:06.980Z,65.45
2023-07-10T06:50:34.520Z,65.51
2023-07-10T06:53:15.327Z,66.20
2023-07-10T06:55:55.013Z,64.84
2023-07-10T06:58:22.623Z,64.28
2023-07-10T07:00:50.319Z,64.65
2023-07-10T07:03:18.128Z,64.57
2023-07-10T07:05:46.403Z,64.79
2023-07-10T07:08:18.469Z,64.30
2023-07-10T07:10:47.266Z,64.00
2023-07-10T07:13:15.247Z,62.42
2023-07-10T07:15:42.804Z,62.87
2023-07-10T07:18:10.622Z,64.28
2023-07-10T07:20:40.111Z,64.75
2023-07-10T07:23:07.639Z,64.02
2023-07-10T07:25:36.518Z,63.80
2023-07-10T07:28:04.946Z,62.26
2023-07-10T07:30:33.537Z,62.46
2023-07-10T07:33:01.830Z,62.42
2023-07-10T07:35:29.563Z,63.07
2023-07-10T07:37:57.220Z,61.38
2023-07-10T07:40:24.787Z,61.27
2023-07-10T07:42:53.646Z,60.83
2023-07-10T07:45:21.175Z,59.94
2023-07-10T07:47:48.913Z,59.79
2023-07-10T07:50:16.867Z,59.54
2023-07-10T07:52:47.558Z,59.72
2023-07-10T07:55:15.086Z,59.98
2023-07-10T07:57:44.429Z,61.49
2023-07-10T08:00:14.911Z,60.77
2023-07-10T08:02:42.746Z,60.50
2023-07-10T08:05:23.879Z,61.10
2023-07-10T08:07:58.216Z,60.20
2023-07-10T08:10:25.829Z,58.95
2023-07-10T08:12:53.426Z,59.32
2023-07-10T08:15:22.309Z,58.25
2023-07-10T08:17:49.966Z,58.70
2023-07-10T08:20:17.669Z,59.42
2023-07-10T08:22:45.199Z,58.58
2023-07-10T08:25:12.824Z,57.84
2023-07-10T08:27:41.917Z,58.41
2023-07-10T08:30:10.462Z,58.20
2023-07-10T08:32:39.321Z,58.19
2023-07-10T08:35:08.069Z,57.50
2023-07-10T08:37:37.335Z,57.69
2023-07-10T08:40:05.596Z,57.80
2023-07-10T08:42:34.177Z,58.30
2023-07-10T08:45:03.079Z,57.35
2023-07-10T08:47:37.633Z,57.04
2023-07-10T08:50:30.339Z,57.73
2023-07-10T08:53:06.099Z,57.79
2023-07-10T08:55:52.981Z,56.56
2023-07-10T08:58:23.023Z,57.66
2023-07-10T09:00:53.018Z,56.57
2023-07-10T09:03:39.713Z,55.49
2023-07-10T09:06:20.353Z,58.07
2023-07-10T09:08:51.383Z,57.32
2023-07-10T09:11:20.180Z,56.83
2023-07-10T09:13:54.300Z,57.03
2023-07-10T09:16:23.223Z,58.04
2023-07-10T09:18:54.158Z,59.04
2023-07-10T09:21:30.961Z,59.23
2023-07-10T09:23:58.489Z,59.14
2023-07-10T09:26:31.375Z,58.63
2023-07-10T09:29:19.048Z,58.07
2023-07-10T09:31:52.398Z,57.33
2023-07-10T09:34:22.705Z,57.87
2023-07-10T09:36:53.543Z,59.20
2023-07-10T09:39:21.655Z,57.22
2023-07-10T09:41:49.789Z,57.52
2023-07-10T09:44:19.361Z,57.06
2023-07-10T09:46:50.605Z,58.44
2023-07-10T09:49:22.128Z,57.36
2023-07-10T09:52:00.497Z,57.15
2023-07-10T09:54:37.374Z,56.47
2023-07-10T09:57:11.966Z,56.25
2023-07-10T09:59:39.854Z,55.14
2023-07-10T10:02:19.388Z,55.98
2023-07-10T10:04:52.947Z,54.35
2023-07-10T10:07:24.448Z,54.57
2023-07-10T10:10:20.446Z,53.90
2023-07-10T10:12:55.419Z,54.93
2023-07-10T10:15:32.235Z,54.67
2023-07-10T10:18:03.354Z,55.31
2023-07-10T10:20:34.809Z,56.00
2023-07-10T10:23:03.766Z,54.98
2023-07-10T10:25:37.493Z,54.65
2023-07-10T10:28:26.793Z,54.80
2023-07-10T10:30:59.314Z,54.05
2023-07-10T10:33:35.834Z,54.83
2023-07-10T10:36:19.421Z,55.75
2023-07-10T10:38:55.192Z,55.03
2023-07-10T10:41:43.109Z,54.76
2023-07-10T10:44:19.721Z,54.20
2023-07-10T10:47:03.094Z,52.25
2023-07-10T10:49:49.711Z,52.16
2023-07-10T10:52:26.988Z,52.84
2023-07-10T10:55:08.764Z,53.29
2023-07-10T10:57:45.690Z,54.48
2023-07-10T11:00:29.775Z,52.04
2023-07-10T11:03:15.141Z,53.17
2023-07-10T11:05:47.731Z,53.08
2023-07-10T11:08:20.567Z,53.70
2023-07-10T11:10:51.656Z,53.01
2023-07-10T11:13:24.296Z,51.37
2023-07-10T11:15:52.058Z,51.14
2023-07-10T11:18:19.932Z,50.49
2023-07-10T11:20:47.740Z,50.71
2023-07-10T11:23:35.849Z,50.26
2023-07-10T11:26:10.368Z,50.72
2023-07-10T11:28:39.415Z,52.02
2023-07-10T11:31:30.066Z,51.09
2023-07-10T11:34:32.816Z,50.47
2023-07-10T11:37:00.344Z,51.28
2023-07-10T11:39:33.372Z,50.14
2023-07-10T11:42:17.403Z,50.69
2023-07-10T11:44:54.128Z,48.96
2023-07-10T11:47:28.700Z,49.44
2023-07-10T11:50:17.861Z,48.46
2023-07-10T11:52:45.425Z,49.48
2023-07-10T11:55:16.186Z,49.63
2023-07-10T11:57:45.006Z,49.78
2023-07-10T12:00:26.678Z,49.72
2023-07-10T12:02:55.748Z,49.33
2023-07-10T12:05:25.709Z,49.65
2023-07-10T12:08:01.401Z,49.10
2023-07-10T12:10:32.520Z,49.03
2023-07-10T12:13:02.895Z,49.60
2023-07-10T12:15:30.490Z,49.12
2023-07-10T12:17:58.227Z,49.06
2023-07-10T12:20:29.882Z,48.48
2023-07-10T12:23:07.805Z,48.71
2023-07-10T12:25:35.318Z,47.79
2023-07-10T12:30:39.443Z,47.60
2023-07-10T12:33:30.438Z,47.16
2023-07-10T12:36:03.747Z,47.05
2023-07-10T12:38:33.813Z,46.68
2023-07-10T12:41:01.453Z,48.30
2023-07-10T12:43:30.593Z,46.35
2023-07-10T12:45:59.649Z,46.41
2023-07-10T12:48:31.004Z,45.69
2023-07-10T12:51:01.578Z,46.22
2023-07-10T12:53:34.784Z,45.31
2023-07-10T12:56:10.117Z,46.21
2023-07-10T12:58:39.797Z,45.59
2023-07-10T13:01:21.148Z,46.30
2023-07-10T13:04:01.329Z,44.75
2023-07-10T13:06:28.881Z,45.18
2023-07-10T13:08:58.598Z,44.99
2023-07-10T13:11:40.585Z,45.12
2023-07-10T13:14:30.024Z,44.88
2023-07-10T13:16:59.085Z,44.30
2023-07-10T13:19:27.084Z,43.68
2023-07-10T13:21:54.609Z,43.76
2023-07-10T13:24:22.149Z,44.30
2023-07-10T13:26:53.432Z,43.44
2023-07-10T13:29:22.289Z,43.64
2023-07-10T13:31:50.015Z,42.87
2023-07-10T13:34:17.592Z,42.85
2023-07-10T13:36:45.446Z,44.01
2023-07-10T13:39:19.916Z,42.72
2023-07-10T13:41:49.301Z,43.15
2023-07-10T13:44:16.827Z,42.62
2023-07-10T13:46:45.702Z,42.56
2023-07-10T13:49:15.136Z,42.04
2023-07-10T13:51:43.009Z,41.76
2023-07-10T13:54:10.700Z,42.64
2023-07-10T13:56:41.399Z,42.16
2023-07-10T13:59:14.906Z,42.04
2023-07-10T14:01:42.493Z,41.91
2023-07-10T14:04:11.432Z,41.18
2023-07-10T14:09:57.737Z,41.03
2023-07-10T14:12:27.303Z,41.66
2023-07-10T14:14:57.535Z,41.31
2023-07-10T14:17:28.771Z,40.96
2023-07-10T14:19:58.090Z,41.38
2023-07-10T14:22:25.896Z,40.61
2023-07-10T14:24:53.458Z,40.49
2023-07-10T14:27:23.103Z,40.56
2023-07-10T14:29:51.506Z,39.84
2023-07-10T14:32:20.649Z,40.23
2023-07-10T14:34:49.042Z,39.85
2023-07-10T14:37:20.291Z,39.42
2023-07-10T14:39:49.385Z,38.93
2023-07-10T14:42:18.799Z,38.99
2023-07-10T14:44:46.453Z,39.25
2023-07-10T14:47:29.820Z,37.88
2023-07-10T14:49:57.505Z,36.08
2023-07-10T14:52:28.519Z,37.11
2023-07-10T14:54:57.880Z,37.54
2023-07-10T14:57:30.488Z,36.37
2023-07-10T14:59:58.718Z,35.08
2023-07-10T15:02:27.620Z,36.46
2023-07-10T15:04:56.088Z,33.32
2023-07-10T15:07:24.288Z,33.48
2023-07-10T15:09:53.140Z,33.32
2023-07-10T15:12:22.500Z,33.06
2023-07-10T15:14:51.651Z,32.16
2023-07-10T15:17:22.555Z,32.37
2023-07-10T15:19:51.578Z,31.87
2023-07-10T15:22:20.792Z,31.83
2023-07-10T15:24:50.354Z,32.36
2023-07-10T15:27:19.192Z,32.65
2023-07-10T15:29:46.724Z,33.43
2023-07-10T15:32:17.578Z,33.98
2023-07-10T15:34:47.053Z,34.39
2023-07-10T15:37:20.948Z,30.98
2023-07-10T15:39:49.100Z,30.04
2023-07-10T15:42:17.484Z,31.73
2023-07-10T15:44:47.531Z,29.61
2023-07-10T15:47:18.823Z,30.63
2023-07-10T15:49:46.473Z,29.69
2023-07-10T15:52:23.432Z,30.11
2023-07-10T15:54:51.164Z,30.40
2023-07-10T15:57:18.897Z,29.62
2023-07-10T15:59:47.791Z,29.40
2023-07-10T16:02:27.717Z,29.30
2023-07-10T16:04:56.361Z,29.99
2023-07-10T16:07:23.910Z,30.29
2023-07-10T16:09:51.394Z,30.97
2023-07-10T16:12:19.092Z,32.05
2023-07-10T16:14:47.927Z,32.48
2023-07-10T16:17:16.683Z,32.44
2023-07-10T16:19:44.371Z,32.12
2023-07-10T16:22:13.268Z,31.99
2023-07-10T16:24:41.844Z,32.21
2023-07-10T16:27:13.433Z,32.01
2023-07-10T16:29:41.595Z,32.62
2023-07-10T16:32:16.372Z,32.43
2023-07-10T16:34:43.925Z,33.00
2023-07-10T16:37:14.489Z,32.84
2023-07-10T16:39:42.129Z,31.62
2023-07-10T16:42:14.148Z,31.35
2023-07-10T16:44:41.674Z,31.47
2023-07-10T16:47:17.526Z,32.10
2023-07-10T16:49:45.407Z,32.52
2023-07-10T16:52:14.031Z,33.19
2023-07-10T16:54:41.545Z,34.24
2023-07-10T16:57:17.245Z,34.00
2023-07-10T16:59:44.807Z,33.68
2023-07-10T17:02:23.155Z,32.38
2023-07-10T17:04:50.726Z,32.56
2023-07-10T17:07:18.288Z,33.07
2023-07-10T17:09:45.806Z,32.18
2023-07-10T17:12:13.419Z,30.98
2023-07-10T17:14:40.960Z,30.87
2023-07-10T17:17:19.201Z,31.17
2023-07-10T17:19:49.435Z,30.99
2023-07-10T17:22:20.504Z,31.58
2023-07-10T17:24:48.061Z,31.42
2023-07-10T17:27:15.570Z,31.63
2023-07-10T17:29:43.260Z,31.38
2023-07-10T17:32:15.626Z,31.82
2023-07-10T17:34:43.326Z,31.70
2023-07-10T17:37:15.318Z,30.88
2023-07-10T17:39:43.804Z,31.31
2023-07-10T17:42:17.756Z,32.08
2023-07-10T17:44:45.491Z,31.10
2023-07-10T17:47:18.172Z,32.27
2023-07-10T17:49:46.550Z,33.09
2023-07-10T17:52:17.802Z,33.69
2023-07-10T17:54:45.685Z,33.95
2023-07-10T17:57:15.288Z,33.81
2023-07-10T17:59:43.219Z,33.79
2023-07-10T18:02:22.619Z,34.24
2023-07-10T18:04:51.362Z,35.12
2023-07-10T18:07:20.486Z,35.26
2023-07-10T18:09:47.999Z,35.39
2023-07-10T18:12:18.633Z,37.77
2023-07-10T18:14:48.361Z,38.04
2023-07-10T18:17:20.253Z,35.96
2023-07-10T18:19:48.026Z,36.60
2023-07-10T18:22:16.214Z,36.41
2023-07-10T18:24:45.694Z,36.71
2023-07-10T18:27:17.741Z,36.48
2023-07-10T18:29:46.252Z,37.96
2023-07-10T18:32:18.315Z,40.29
2023-07-10T18:34:47.406Z,40.62
2023-07-10T18:37:17.321Z,40.92
2023-07-10T18:39:46.695Z,41.80
2023-07-10T18:42:19.503Z,41.72
2023-07-10T18:44:47.500Z,42.07
2023-07-10T18:47:15.697Z,42.64
2023-07-10T18:49:43.267Z,43.04
2023-07-10T18:52:24.878Z,41.46
2023-07-10T18:54:53.817Z,41.05
2023-07-10T18:57:21.492Z,41.00
2023-07-10T18:59:49.072Z,40.50
2023-07-10T19:02:16.657Z,41.77
2023-07-10T19:04:44.277Z,42.05
2023-07-10T19:07:14.185Z,41.86
2023-07-10T19:09:45.407Z,43.19
2023-07-10T19:12:17.056Z,43.22
2023-07-10T19:14:45.592Z,43.95
2023-07-10T19:17:19.473Z,44.21
2023-07-10T19:19:50.411Z,44.74
2023-07-10T19:22:19.007Z,45.16
2023-07-10T19:24:47.948Z,45.78
2023-07-10T19:27:16.756Z,45.47
2023-07-10T19:29:44.238Z,46.16
2023-07-10T19:32:26.547Z,46.30
2023-07-10T19:34:54.831Z,46.42
2023-07-10T19:37:22.370Z,46.57
2023-07-10T19:39:49.885Z,47.39
2023-07-10T19:42:18.804Z,48.00
2023-07-10T19:44:49.467Z,48.44
2023-07-10T19:47:18.569Z,48.21
2023-07-10T19:49:46.455Z,48.44
2023-07-10T19:52:15.587Z,48.88
2023-07-10T19:54:44.447Z,49.52
2023-07-10T19:57:19.091Z,50.19
2023-07-10T19:59:46.761Z,50.38
2023-07-10T20:02:16.076Z,50.84
2023-07-10T20:04:43.773Z,51.10
2023-07-10T20:07:13.145Z,51.40
2023-07-10T20:09:40.664Z,52.12
2023-07-10T20:12:18.972Z,52.11
2023-07-10T20:14:46.497Z,52.44
2023-07-10T20:17:31.098Z,53.07
2023-07-10T20:19:59.165Z,53.45
2023-07-10T20:22:27.071Z,53.61
2023-07-10T20:24:55.253Z,53.59
2023-07-10T20:27:24.258Z,54.02
2023-07-10T20:29:51.741Z,54.56
2023-07-10T20:32:19.790Z,55.34
2023-07-10T20:34:49.354Z,55.20
2023-07-10T20:37:19.954Z,54.99
2023-07-10T20:39:47.433Z,55.82
2023-07-10T20:42:16.390Z,55.98
2023-07-10T20:44:47.428Z,56.05
2023-07-10T20:47:17.078Z,56.44
2023-07-10T20:49:46.248Z,56.51
2023-07-10T20:52:15.599Z,56.11
2023-07-10T20:54:43.488Z,56.22
2023-07-10T20:57:14.380Z,57.03
2023-07-10T20:59:42.539Z,57.66
2023-07-10T21:02:22.443Z,57.80
2023-07-10T21:04:50.175Z,57.81
2023-07-10T21:07:19.741Z,58.32
2023-07-10T21:09:49.894Z,59.56
2023-07-10T21:12:19.822Z,60.15
2023-07-10T21:14:48.044Z,59.63
2023-07-10T21:17:19.322Z,59.50
2023-07-10T21:19:46.962Z,59.49
2023-07-10T21:22:15.373Z,59.07
2023-07-10T21:24:44.072Z,59.93
2023-07-10T21:27:25.892Z,60.52
2023-07-10T21:29:54.493Z,61.78
2023-07-10T21:32:25.821Z,61.05
2023-07-10T21:34:54.457Z,60.95
2023-07-10T21:37:22.053Z,60.91
2023-07-10T21:39:49.616Z,60.52
2023-07-10T21:42:20.833Z,59.96
2023-07-10T21:44:48.628Z,60.47
2023-07-10T21:47:16.166Z,60.45
2023-07-10T21:49:45.098Z,61.38
2023-07-10T21:52:12.614Z,60.99
2023-07-10T21:54:40.140Z,60.81
2023-07-10T21:57:07.822Z,61.21
2023-07-10T21:59:37.817Z,61.40
2023-07-10T22:02:05.576Z,61.73
2023-07-10T22:04:33.135Z,62.00
2023-07-10T22:07:01.980Z,61.84
2023-07-10T22:09:29.468Z,61.85
2023-07-10T22:11:57.000Z,61.65
2023-07-10T22:14:24.832Z,62.39
2023-07-10T22:16:59.379Z,62.90
2023-07-10T22:19:33.391Z,62.47
2023-07-10T22:22:02.368Z,62.77
2023-07-10T22:24:30.005Z,62.86
2023-07-10T22:26:57.524Z,63.15
2023-07-10T22:29:25.147Z,63.08
2023-07-10T22:31:52.720Z,63.04
2023-07-10T22:34:20.268Z,62.72
2023-07-10T22:36:47.767Z,62.70
2023-07-10T22:39:16.614Z,62.93
2023-07-10T22:41:44.665Z,65.36
2023-07-10T22:44:15.907Z,65.11
2023-07-10T22:46:45.748Z,64.38
2023-07-10T22:49:14.403Z,63.81
2023-07-10T22:51:42.592Z,63.34
2023-07-10T22:54:11.022Z,63.69
2023-07-10T22:56:42.858Z,64.07
2023-07-10T22:59:12.590Z,64.86
2023-07-10T23:01:40.181Z,65.12
2023-07-10T23:04:07.699Z,65.21
2023-07-10T23:06:35.364Z,65.18
2023-07-10T23:09:02.938Z,65.22
2023-07-10T23:11:30.570Z,65.86
2023-07-10T23:13:59.557Z,66.00
2023-07-10T23:16:27.278Z,66.04
2023-07-10T23:18:57.220Z,67.06
2023-07-10T23:21:25.753Z,66.55
2023-07-10T23:23:54.020Z,66.63
2023-07-10T23:26:24.125Z,67.06
2023-07-10T23:28:52.145Z,67.28
2023-07-10T23:31:24.454Z,68.25
2023-07-10T23:33:52.592Z,68.51
2023-07-10T23:36:21.348Z,66.81
2023-07-10T23:38:49.191Z,67.30
2023-07-10T23:41:18.087Z,67.90
2023-07-10T23:43:46.252Z,67.73
2023-07-10T23:46:14.411Z,67.59
2023-07-10T23:48:44.441Z,67.69
2023-07-10T23:51:12.584Z,67.97
2023-07-10T23:53:40.679Z,68.36
2023-07-10T23:56:10.115Z,68.80
2023-07-10T23:58:38.389Z,68.49
